createdAt,value
2018-06-12T00:02:09.929Z,16.09
2018-06-12T00:04:38.555Z,16.09
2018-06-12T00:07:07.196Z,16.12
2018-06-12T00:09:36.393Z,16.12
2018-06-12T00:12:05.006Z,16.15
2018-06-12T00:14:33.763Z,16.13
2018-06-12T00:17:02.360Z,16.16
2018-06-12T00:19:30.970Z,16.17
2018-06-12T00:21:59.554Z,16.19
2018-06-12T00:24:28.098Z,16.21
2018-06-12T00:26:56.677Z,16.22
2018-06-12T00:29:25.177Z,16.24
2018-06-12T00:31:53.946Z,16.25
2018-06-12T00:34:22.569Z,16.28
2018-06-12T00:36:51.111Z,16.29
2018-06-12T00:39:19.693Z,16.30
2018-06-12T00:41:48.373Z,16.30
2018-06-12T00:44:16.986Z,16.29
2018-06-12T00:46:45.647Z,16.30
2018-06-12T00:49:14.266Z,16.29
2018-06-12T00:51:43.113Z,16.28
2018-06-12T00:54:11.702Z,16.27
2018-06-12T00:56:51.397Z,16.27
2018-06-12T00:59:20.030Z,16.26
2018-06-12T01:01:48.700Z,16.26
2018-06-12T01:04:17.400Z,16.25
2018-06-12T01:06:45.927Z,16.26
2018-06-12T01:09:14.578Z,16.26
2018-06-12T01:11:43.254Z,16.28
2018-06-12T01:14:11.774Z,16.27
2018-06-12T01:16:40.519Z,16.26
2018-06-12T01:19:09.011Z,16.20
2018-06-12T01:21:37.685Z,16.23
2018-06-12T01:24:06.526Z,16.20
2018-06-12T01:26:35.055Z,16.19
2018-06-12T01:29:03.744Z,16.16
2018-06-12T01:31:32.533Z,16.14
2018-06-12T01:34:01.221Z,16.11
2018-06-12T01:36:29.900Z,16.10
2018-06-12T01:38:58.506Z,16.09
2018-06-12T01:41:27.106Z,16.04
2018-06-12T01:43:55.667Z,15.99
2018-06-12T01:46:24.334Z,15.92
2018-06-12T01:48:52.917Z,15.93
2018-06-12T01:51:21.501Z,15.92
2018-06-12T01:53:50.072Z,15.84
2018-06-12T01:56:18.652Z,15.84
2018-06-12T01:58:47.132Z,15.73
2018-06-12T02:01:15.728Z,15.71
2018-06-12T02:03:44.363Z,15.68
2018-06-12T02:06:14.847Z,15.66
2018-06-12T02:08:43.831Z,15.63
2018-06-12T02:11:12.498Z,15.60
2018-06-12T02:13:41.202Z,15.55
2018-06-12T02:16:09.738Z,15.53
2018-06-12T02:18:38.368Z,15.52
2018-06-12T02:21:06.994Z,15.52
2018-06-12T02:23:35.682Z,15.50
2018-06-12T02:26:05.141Z,15.48
2018-06-12T02:28:33.723Z,15.45
2018-06-12T02:31:02.414Z,15.45
2018-06-12T02:33:30.991Z,15.43
2018-06-12T02:35:59.483Z,15.37
2018-06-12T02:38:28.157Z,15.35
2018-06-12T02:40:56.742Z,15.37
2018-06-12T02:43:25.272Z,15.37
2018-06-12T02:45:53.807Z,15.36
2018-06-12T02:48:22.302Z,15.32
2018-06-12T02:50:50.884Z,15.27
2018-06-12T02:53:19.555Z,15.29
2018-06-12T02:55:48.134Z,15.30
2018-06-12T02:58:17.899Z,15.23
2018-06-12T03:00:46.530Z,15.22
2018-06-12T03:03:15.828Z,15.22
2018-06-12T03:05:44.513Z,15.27
2018-06-12T03:08:13.147Z,15.23
2018-06-12T03:10:41.782Z,15.22
2018-06-12T03:13:10.876Z,15.20
2018-06-12T03:15:39.374Z,15.19
2018-06-12T03:18:08.042Z,15.19
2018-06-12T03:20:45.280Z,15.19
2018-06-12T03:23:13.847Z,15.19
2018-06-12T03:25:42.395Z,15.18
2018-06-12T03:28:11.081Z,15.19
2018-06-12T03:30:39.654Z,15.21
2018-06-12T03:33:08.287Z,15.04
2018-06-12T03:35:36.838Z,15.10
2018-06-12T03:38:05.518Z,15.14
2018-06-12T03:40:34.139Z,15.08
2018-06-12T03:43:02.780Z,15.15
2018-06-12T03:45:31.375Z,15.17
2018-06-12T03:47:59.862Z,15.18
2018-06-12T03:50:28.427Z,15.16
2018-06-12T03:52:57.107Z,15.16
2018-06-12T03:55:25.783Z,15.15
2018-06-12T03:57:54.294Z,15.17
2018-06-12T04:00:23.375Z,15.08
2018-06-12T04:02:51.958Z,15.08
2018-06-12T04:05:20.538Z,15.03
2018-06-12T04:07:49.039Z,15.06
2018-06-12T04:10:17.708Z,15.07
2018-06-12T04:12:46.359Z,15.10
2018-06-12T04:15:15.526Z,15.11
2018-06-12T04:17:44.218Z,15.13
2018-06-12T04:20:12.939Z,15.11
2018-06-12T04:22:41.459Z,15.11
2018-06-12T04:25:09.991Z,15.10
2018-06-12T04:27:38.604Z,15.12
2018-06-12T04:30:07.198Z,15.13
2018-06-12T04:32:35.806Z,15.10
2018-06-12T04:35:04.394Z,15.12
2018-06-12T04:37:33.036Z,15.13
2018-06-12T04:40:01.666Z,15.14
2018-06-12T04:42:30.266Z,15.12
2018-06-12T04:44:58.907Z,15.10
2018-06-12T04:47:27.526Z,15.03
2018-06-12T04:49:56.159Z,15.10
2018-06-12T04:52:25.558Z,15.13
2018-06-12T04:54:54.179Z,15.13
2018-06-12T04:57:22.778Z,15.09
2018-06-12T04:59:51.408Z,15.05
2018-06-12T05:02:20.005Z,15.07
2018-06-12T05:04:48.594Z,15.10
2018-06-12T05:07:17.260Z,15.06
2018-06-12T05:09:45.793Z,15.15
2018-06-12T05:12:14.470Z,15.18
2018-06-12T05:14:43.110Z,15.16
2018-06-12T05:17:11.796Z,15.26
2018-06-12T05:19:40.373Z,15.30
2018-06-12T05:22:08.963Z,15.40
2018-06-12T05:24:37.651Z,15.49
2018-06-12T05:27:06.271Z,15.52
2018-06-12T05:29:34.847Z,15.55
2018-06-12T05:32:03.752Z,15.54
2018-06-12T05:34:32.455Z,15.62
2018-06-12T05:37:01.006Z,15.65
2018-06-12T05:39:29.655Z,15.75
2018-06-12T05:41:58.852Z,15.80
2018-06-12T05:44:27.537Z,15.85
2018-06-12T05:46:57.246Z,15.83
2018-06-12T05:49:25.832Z,15.79
2018-06-12T05:51:54.942Z,15.80
2018-06-12T05:54:23.555Z,15.80
2018-06-12T05:56:52.193Z,15.88
2018-06-12T05:59:20.719Z,15.89
2018-06-12T06:01:49.318Z,15.95
2018-06-12T06:04:18.046Z,16.08
2018-06-12T06:06:46.729Z,16.10
2018-06-12T06:09:15.350Z,16.21
2018-06-12T06:11:43.999Z,16.21
2018-06-12T06:14:12.629Z,16.24
2018-06-12T06:16:41.215Z,16.20
2018-06-12T06:19:09.805Z,16.25
2018-06-12T06:21:38.431Z,16.21
2018-06-12T06:24:06.962Z,16.18
2018-06-12T06:26:35.527Z,16.19
2018-06-12T06:29:04.094Z,16.16
2018-06-12T06:31:32.866Z,16.04
2018-06-12T06:34:02.166Z,16.02
2018-06-12T06:36:30.852Z,15.99
2018-06-12T06:38:59.353Z,15.99
2018-06-12T06:41:28.666Z,16.04
2018-06-12T06:43:57.230Z,16.08
2018-06-12T06:46:25.795Z,16.11
2018-06-12T06:48:55.343Z,16.20
2018-06-12T06:51:23.993Z,16.29
2018-06-12T06:53:53.375Z,16.37
2018-06-12T06:56:22.138Z,16.43
2018-06-12T06:58:50.781Z,16.48
2018-06-12T07:01:19.403Z,16.65
2018-06-12T07:03:48.113Z,16.82
2018-06-12T07:06:16.641Z,16.96
2018-06-12T07:08:45.518Z,17.10
2018-06-12T07:11:14.089Z,17.15
2018-06-12T07:13:42.688Z,17.11
2018-06-12T07:16:11.354Z,17.14
2018-06-12T07:18:39.938Z,17.19
2018-06-12T07:21:25.211Z,17.14
2018-06-12T07:23:53.897Z,17.17
2018-06-12T07:26:22.475Z,17.26
2018-06-12T07:28:51.058Z,17.16
2018-06-12T07:31:19.743Z,17.32
2018-06-12T07:33:48.375Z,17.38
2018-06-12T07:36:17.731Z,17.54
2018-06-12T07:38:46.331Z,17.79
2018-06-12T07:41:14.904Z,17.85
2018-06-12T07:43:44.749Z,18.00
2018-06-12T07:46:13.290Z,18.06
2018-06-12T07:48:41.873Z,18.09
2018-06-12T07:51:10.694Z,18.17
2018-06-12T07:53:39.345Z,18.11
2018-06-12T07:56:07.973Z,17.91
2018-06-12T07:58:37.023Z,17.94
2018-06-12T08:01:05.659Z,18.00
2018-06-12T08:03:34.275Z,18.00
2018-06-12T08:06:02.927Z,18.11
2018-06-12T08:08:31.567Z,18.11
2018-06-12T08:11:00.195Z,18.25
2018-06-12T08:13:29.122Z,18.24
2018-06-12T08:15:58.538Z,18.15
2018-06-12T08:18:27.225Z,18.29
2018-06-12T08:20:56.379Z,18.36
2018-06-12T08:23:25.005Z,18.39
2018-06-12T08:25:53.642Z,18.45
2018-06-12T08:28:22.310Z,18.43
2018-06-12T08:30:51.058Z,18.49
2018-06-12T08:33:19.646Z,18.49
2018-06-12T08:35:48.182Z,18.61
2018-06-12T08:38:16.908Z,18.66
2018-06-12T08:40:45.593Z,18.70
2018-06-12T08:43:14.228Z,18.94
2018-06-12T08:45:42.782Z,19.24
2018-06-12T08:48:11.446Z,19.41
2018-06-12T08:50:40.067Z,19.70
2018-06-12T08:53:08.733Z,19.91
2018-06-12T08:55:37.385Z,20.06
2018-06-12T08:58:06.702Z,20.06
2018-06-12T09:00:35.385Z,20.00
2018-06-12T09:03:03.981Z,20.01
2018-06-12T09:05:32.551Z,20.14
2018-06-12T09:08:01.175Z,20.10
2018-06-12T09:10:29.950Z,20.01
2018-06-12T09:13:00.390Z,20.15
2018-06-12T09:15:29.646Z,20.24
2018-06-12T09:17:58.259Z,20.45
2018-06-12T09:20:27.015Z,20.56
2018-06-12T09:22:56.218Z,20.47
2018-06-12T09:25:24.904Z,20.59
2018-06-12T09:27:53.588Z,20.58
2018-06-12T09:30:22.811Z,20.48
2018-06-12T09:32:51.383Z,20.76
2018-06-12T09:35:20.868Z,20.94
2018-06-12T09:37:49.490Z,21.13
2018-06-12T09:40:18.141Z,21.04
2018-06-12T09:42:46.740Z,21.22
2018-06-12T09:45:15.301Z,21.25
2018-06-12T09:47:43.986Z,21.15
2018-06-12T09:50:12.570Z,21.37
2018-06-12T09:52:41.255Z,21.44
2018-06-12T09:55:09.742Z,21.60
2018-06-12T09:57:38.402Z,21.43
2018-06-12T10:00:07.008Z,21.31
2018-06-12T10:02:36.236Z,21.19
2018-06-12T10:05:05.196Z,21.38
2018-06-12T10:07:33.781Z,21.77
2018-06-12T10:10:02.569Z,21.80
2018-06-12T10:12:31.190Z,21.79
2018-06-12T10:14:59.734Z,21.93
2018-06-12T10:17:28.334Z,22.00
2018-06-12T10:19:56.838Z,22.28
2018-06-12T10:22:25.481Z,22.49
2018-06-12T10:24:54.573Z,22.29
2018-06-12T10:27:23.257Z,22.46
2018-06-12T10:29:52.703Z,22.54
2018-06-12T10:32:21.666Z,22.74
2018-06-12T10:34:50.234Z,22.70
2018-06-12T10:37:18.751Z,22.50
2018-06-12T10:39:47.912Z,22.43
2018-06-12T10:42:16.514Z,22.23
2018-06-12T10:44:45.181Z,22.42
2018-06-12T10:47:13.786Z,22.22
2018-06-12T10:49:42.383Z,22.08
2018-06-12T10:52:10.983Z,22.16
2018-06-12T10:54:39.622Z,22.31
2018-06-12T10:57:08.210Z,22.56
2018-06-12T10:59:36.808Z,22.54
2018-06-12T11:02:06.037Z,22.54
2018-06-12T11:04:34.571Z,22.60
2018-06-12T11:07:03.348Z,22.57
2018-06-12T11:09:32.135Z,22.50
2018-06-12T11:12:01.640Z,22.13
2018-06-12T11:14:31.043Z,22.03
2018-06-12T11:16:59.625Z,21.97
2018-06-12T11:19:28.858Z,21.77
2018-06-12T11:21:57.507Z,21.78
2018-06-12T11:24:26.091Z,21.85
2018-06-12T11:26:54.877Z,21.79
2018-06-12T11:29:23.404Z,21.80
2018-06-12T11:31:52.043Z,21.84
2018-06-12T11:34:20.745Z,21.82
2018-06-12T11:36:49.342Z,22.01
2018-06-12T11:39:17.853Z,22.18
2018-06-12T11:41:46.386Z,22.30
2018-06-12T11:44:15.060Z,22.41
2018-06-12T11:46:43.745Z,22.36
2018-06-12T11:49:12.258Z,22.28
2018-06-12T11:51:40.842Z,22.40
2018-06-12T11:54:09.345Z,22.39
2018-06-12T11:56:37.978Z,22.38
2018-06-12T11:59:07.069Z,22.37
2018-06-12T12:01:35.754Z,22.47
2018-06-12T12:04:04.870Z,22.55
2018-06-12T12:06:33.534Z,22.65
2018-06-12T12:09:02.221Z,22.66
2018-06-12T12:11:30.924Z,22.49
2018-06-12T12:13:59.427Z,22.19
2018-06-12T12:16:29.066Z,22.08
2018-06-12T12:18:57.677Z,22.01
2018-06-12T12:21:26.854Z,22.08
2018-06-12T12:23:55.561Z,22.19
2018-06-12T12:26:24.118Z,22.24
2018-06-12T12:28:53.136Z,22.39
2018-06-12T12:31:22.644Z,22.23
2018-06-12T12:33:51.225Z,22.31
2018-06-12T12:36:19.909Z,22.28
2018-06-12T12:38:48.613Z,22.23
2018-06-12T12:41:17.279Z,22.33
2018-06-12T12:43:45.969Z,22.23
2018-06-12T12:46:14.649Z,22.06
2018-06-12T12:48:43.337Z,21.94
2018-06-12T12:51:11.867Z,21.94
2018-06-12T12:53:40.414Z,22.03
2018-06-12T12:56:09.022Z,21.98
2018-06-12T12:58:37.589Z,21.92
2018-06-12T13:01:06.250Z,22.12
2018-06-12T13:03:35.019Z,22.15
2018-06-12T13:06:04.236Z,21.88
2018-06-12T13:08:32.845Z,22.03
2018-06-12T13:11:01.366Z,22.08
2018-06-12T13:13:29.849Z,22.03
2018-06-12T13:15:59.177Z,22.13
2018-06-12T13:18:27.868Z,22.20
2018-06-12T13:20:56.342Z,22.16
2018-06-12T13:23:24.886Z,22.30
2018-06-12T13:25:53.446Z,22.39
2018-06-12T13:28:21.992Z,22.47
2018-06-12T13:30:50.639Z,22.44
2018-06-12T13:33:19.287Z,22.46
2018-06-12T13:35:47.890Z,22.52
2018-06-12T13:38:16.462Z,22.40
2018-06-12T13:40:45.127Z,22.57
2018-06-12T13:43:13.800Z,22.55
2018-06-12T13:45:42.406Z,22.61
2018-06-12T13:48:10.930Z,22.58
2018-06-12T13:50:40.501Z,22.64
2018-06-12T13:53:09.354Z,22.39
2018-06-12T13:55:38.590Z,22.33
2018-06-12T13:58:07.237Z,22.34
2018-06-12T14:00:35.826Z,22.41
2018-06-12T14:03:04.324Z,22.48
2018-06-12T14:05:32.990Z,22.44
2018-06-12T14:08:01.928Z,22.57
2018-06-12T14:10:30.518Z,22.41
2018-06-12T14:13:00.293Z,22.36
2018-06-12T14:15:28.949Z,22.51
2018-06-12T14:17:57.539Z,22.48
2018-06-12T14:20:26.078Z,22.56
2018-06-12T14:22:54.709Z,22.61
2018-06-12T14:25:23.358Z,22.41
2018-06-12T14:27:51.897Z,22.34
2018-06-12T14:30:20.471Z,22.24
2018-06-12T14:32:49.060Z,22.14
2018-06-12T14:35:17.721Z,22.30
2018-06-12T14:37:46.410Z,22.26
2018-06-12T14:40:15.015Z,22.49
2018-06-12T14:42:43.719Z,22.41
2018-06-12T14:45:12.259Z,22.59
2018-06-12T14:47:40.941Z,22.51
2018-06-12T14:50:09.553Z,22.41
2018-06-12T14:52:38.210Z,22.16
2018-06-12T14:55:06.988Z,22.17
2018-06-12T14:57:35.535Z,22.46
2018-06-12T15:00:04.078Z,22.53
2018-06-12T15:02:32.594Z,22.48
2018-06-12T15:05:01.126Z,22.40
2018-06-12T15:07:29.812Z,22.58
2018-06-12T15:09:58.412Z,22.67
2018-06-12T15:12:26.986Z,22.65
2018-06-12T15:14:56.064Z,22.64
2018-06-12T15:17:24.570Z,22.64
2018-06-12T15:19:53.155Z,22.71
2018-06-12T15:22:22.287Z,22.62
2018-06-12T15:24:50.921Z,22.51
2018-06-12T15:27:19.463Z,22.56
2018-06-12T15:29:47.986Z,22.59
2018-06-12T15:32:16.618Z,22.61
2018-06-12T15:34:45.246Z,22.63
2018-06-12T15:37:13.830Z,22.64
2018-06-12T15:39:42.411Z,22.66
2018-06-12T15:42:10.994Z,22.73
2018-06-12T15:44:39.667Z,22.71
2018-06-12T15:47:08.876Z,22.67
2018-06-12T15:49:39.274Z,22.59
2018-06-12T15:52:07.906Z,22.61
2018-06-12T15:54:39.233Z,22.42
2018-06-12T15:57:07.918Z,22.22
2018-06-12T15:59:36.604Z,22.27
2018-06-12T16:02:06.006Z,22.14
2018-06-12T16:04:34.648Z,22.20
2018-06-12T16:07:03.174Z,22.29
2018-06-12T16:09:31.857Z,22.30
2018-06-12T16:12:00.532Z,22.39
2018-06-12T16:14:29.178Z,22.44
2018-06-12T16:16:57.771Z,22.31
2018-06-12T16:19:26.801Z,22.29
2018-06-12T16:21:55.385Z,22.33
2018-06-12T16:24:24.015Z,22.38
2018-06-12T16:26:52.616Z,22.45
2018-06-12T16:29:21.239Z,22.54
2018-06-12T16:31:49.820Z,22.45
2018-06-12T16:34:18.410Z,22.35
2018-06-12T16:36:47.007Z,22.39
2018-06-12T16:39:15.615Z,22.34
2018-06-12T16:41:44.196Z,22.03
2018-06-12T16:44:12.814Z,22.09
2018-06-12T16:46:41.973Z,22.20
2018-06-12T16:49:10.536Z,22.11
2018-06-12T16:51:39.711Z,22.19
2018-06-12T16:54:08.234Z,22.21
2018-06-12T16:56:36.888Z,22.14
2018-06-12T16:59:06.381Z,22.01
2018-06-12T17:01:34.877Z,22.06
2018-06-12T17:04:03.504Z,22.09
2018-06-12T17:06:32.437Z,22.05
2018-06-12T17:09:01.112Z,22.02
2018-06-12T17:11:29.863Z,22.04
2018-06-12T17:13:58.404Z,22.06
2018-06-12T17:16:27.699Z,22.07
2018-06-12T17:18:56.374Z,22.09
2018-06-12T17:21:25.059Z,22.12
2018-06-12T17:23:54.294Z,22.16
2018-06-12T17:26:23.003Z,22.11
2018-06-12T17:28:51.629Z,22.09
2018-06-12T17:31:21.070Z,22.01
2018-06-12T17:33:49.716Z,21.94
2018-06-12T17:36:18.430Z,21.92
2018-06-12T17:38:47.181Z,21.86
2018-06-12T17:41:15.733Z,21.81
2018-06-12T17:43:44.354Z,21.65
2018-06-12T17:46:13.552Z,21.59
2018-06-12T17:48:42.135Z,21.58
2018-06-12T17:51:10.651Z,21.51
2018-06-12T17:53:39.205Z,21.48
2018-06-12T17:56:07.785Z,21.38
2018-06-12T17:58:36.467Z,21.38
2018-06-12T18:01:05.087Z,21.38
2018-06-12T18:03:33.634Z,21.37
2018-06-12T18:06:02.124Z,21.24
2018-06-12T18:08:30.632Z,21.22
2018-06-12T18:10:59.169Z,21.21
2018-06-12T18:13:27.763Z,21.15
2018-06-12T18:15:56.294Z,21.12
2018-06-12T18:18:24.927Z,21.00
2018-06-12T18:20:53.508Z,20.85
2018-06-12T18:23:22.092Z,20.81
2018-06-12T18:25:50.775Z,20.78
2018-06-12T18:28:19.358Z,20.63
2018-06-12T18:30:47.879Z,20.50
2018-06-12T18:33:16.526Z,20.48
2018-06-12T18:35:45.107Z,20.48
2018-06-12T18:38:14.226Z,20.47
2018-06-12T18:40:43.688Z,20.42
2018-06-12T18:43:13.110Z,20.32
2018-06-12T18:45:41.593Z,20.21
2018-06-12T18:48:10.172Z,20.13
2018-06-12T18:50:38.861Z,20.09
2018-06-12T18:53:07.439Z,19.96
2018-06-12T18:55:36.021Z,19.89
2018-06-12T18:58:04.546Z,19.86
2018-06-12T19:00:33.235Z,19.75
2018-06-12T19:03:01.868Z,19.67
2018-06-12T19:05:30.560Z,19.64
2018-06-12T19:07:59.145Z,19.56
2018-06-12T19:10:27.743Z,19.47
2018-06-12T19:12:56.331Z,19.41
2018-06-12T19:15:24.935Z,19.37
2018-06-12T19:17:53.574Z,19.30
2018-06-12T19:20:22.159Z,19.23
2018-06-12T19:22:50.707Z,19.17
2018-06-12T19:25:19.404Z,19.09
2018-06-12T19:27:48.066Z,18.98
2018-06-12T19:30:16.642Z,18.91
2018-06-12T19:32:45.222Z,18.83
2018-06-12T19:35:14.322Z,18.76
2018-06-12T19:37:44.089Z,18.70
2018-06-12T19:40:12.719Z,18.60
2018-06-12T19:42:41.258Z,18.51
2018-06-12T19:45:09.932Z,18.40
2018-06-12T19:47:38.515Z,18.30
2018-06-12T19:50:07.098Z,18.20
2018-06-12T19:52:35.698Z,18.13
2018-06-12T19:55:04.332Z,18.04
2018-06-12T19:57:32.895Z,17.94
2018-06-12T20:00:01.589Z,17.83
2018-06-12T20:02:30.167Z,17.73
2018-06-12T20:04:58.830Z,17.63
2018-06-12T20:07:27.471Z,17.53
2018-06-12T20:09:56.070Z,17.40
2018-06-12T20:12:24.702Z,17.31
2018-06-12T20:14:53.251Z,17.22
2018-06-12T20:17:21.917Z,17.10
2018-06-12T20:19:50.554Z,16.98
2018-06-12T20:22:19.289Z,16.88
2018-06-12T20:24:47.911Z,16.73
2018-06-12T20:27:16.560Z,16.71
2018-06-12T20:29:45.244Z,16.61
2018-06-12T20:32:13.929Z,16.46
2018-06-12T20:34:42.618Z,16.44
2018-06-12T20:37:11.297Z,16.33
2018-06-12T20:39:41.721Z,16.17
2018-06-12T20:42:10.300Z,16.16
2018-06-12T20:44:39.504Z,16.06
2018-06-12T20:47:08.044Z,15.28
2018-06-12T20:49:37.898Z,15.91
2018-06-12T20:52:06.570Z,15.83
2018-06-12T20:54:35.169Z,15.78
2018-06-12T20:57:03.857Z,15.70
2018-06-12T20:59:32.367Z,15.63
2018-06-12T21:02:00.966Z,15.57
2018-06-12T21:04:29.607Z,15.49
2018-06-12T21:06:58.924Z,15.43
2018-06-12T21:09:27.471Z,15.47
2018-06-12T21:11:56.068Z,15.44
2018-06-12T21:14:24.667Z,15.37
2018-06-12T21:16:53.896Z,15.25
2018-06-12T21:19:22.539Z,15.22
2018-06-12T21:21:51.837Z,15.16
2018-06-12T21:24:20.462Z,15.10
2018-06-12T21:26:49.165Z,15.02
2018-06-12T21:29:17.710Z,14.97
2018-06-12T21:31:46.286Z,14.89
2018-06-12T21:34:14.951Z,14.84
2018-06-12T21:36:44.868Z,14.80
2018-06-12T21:39:13.441Z,14.74
2018-06-12T21:41:43.176Z,14.69
2018-06-12T21:44:11.971Z,14.65
2018-06-12T21:46:40.552Z,14.62
2018-06-12T21:49:09.232Z,14.55
2018-06-12T21:51:38.362Z,14.16
2018-06-12T21:54:06.997Z,14.46
2018-06-12T21:56:36.072Z,14.42
2018-06-12T21:59:04.880Z,14.39
2018-06-12T22:01:34.503Z,14.34
2018-06-12T22:04:03.106Z,14.29
2018-06-12T22:06:31.853Z,14.26
2018-06-12T22:09:01.255Z,14.21
2018-06-12T22:11:29.842Z,14.14
2018-06-12T22:13:59.275Z,14.11
2018-06-12T22:16:28.027Z,14.06
2018-06-12T22:18:57.490Z,14.02
2018-06-12T22:21:26.030Z,14.00
2018-06-12T22:23:54.758Z,13.95
2018-06-12T22:26:24.364Z,13.91
2018-06-12T22:28:52.959Z,13.87
2018-06-12T22:31:21.496Z,13.81
2018-06-12T22:33:50.098Z,13.78
2018-06-12T22:36:19.149Z,13.74
2018-06-12T22:38:47.782Z,13.71
2018-06-12T22:41:16.927Z,13.69
2018-06-12T22:43:45.511Z,13.64
2018-06-12T22:46:14.196Z,13.62
2018-06-12T22:48:42.934Z,13.61
2018-06-12T22:51:11.524Z,13.58
2018-06-12T22:53:40.152Z,13.55
2018-06-12T22:56:08.766Z,13.51
2018-06-12T22:58:37.315Z,13.48
2018-06-12T23:01:06.003Z,13.37
2018-06-12T23:03:34.630Z,13.43
2018-06-12T23:06:04.860Z,13.42
2018-06-12T23:08:33.484Z,13.39
2018-06-12T23:11:02.073Z,13.39
2018-06-12T23:13:30.702Z,13.36
2018-06-12T23:15:59.334Z,13.34
2018-06-12T23:18:28.031Z,13.32
2018-06-12T23:22:05.371Z,13.29
2018-06-12T23:24:35.338Z,13.27
2018-06-12T23:27:03.965Z,13.24
2018-06-12T23:29:32.604Z,13.23
2018-06-12T23:32:01.095Z,13.21
2018-06-12T23:34:29.711Z,13.18
2018-06-12T23:36:58.355Z,13.16
2018-06-12T23:39:27.022Z,13.15
2018-06-12T23:41:55.629Z,13.12
2018-06-12T23:44:24.222Z,13.11
2018-06-12T23:46:52.854Z,13.07
2018-06-12T23:49:21.471Z,13.07
2018-06-12T23:51:50.098Z,13.05
2018-06-12T23:54:18.682Z,13.05
2018-06-12T23:56:47.323Z,13.05
2018-06-12T23:59:15.982Z,12.97
